Asheville, NC

5:07 PM EDT on September 20, 2014 (GMT -0400)
Rutherford County-Marchman | Change Station
CLOSE
Current Station
Airport
Location: Rutherfordton,
Elevation: 1079 ft
Nearby Weather Stations

Elev 1079 ft 35.43 °N, 81.94 °W | Updated 12 minutes ago

Clear
Clear
79 °F
Feels Like 79 °F
N
4
Wind Variable Wind from North

Today
High -- | Low -- °F
--% Chance of Precip.
Yesterday
High -- | Low -- °F
Precip. -- in
7:16 AM 7:29 PM
Waning Crescent, 10% visible
Pressure 30.09 in
Visibility 10.0 miles
Clouds Scattered Clouds 4700 ft
Dew Point 59 °F
Humidity 50%
Rainfall 0.00 in
Snow Depth Not available.
UV 2 out of 12
Pollen 7.00 out of 12
Ozone Good
PM2.5 Good
Flu Activity Not available.
METAR KFQD 202055Z AUTO 36003KT 10SM SCT047 26/15 A3009 RMK AO2 T02600149

More Conditions Fewer Conditions

Pressure 30.09 in
Visibility 10.0 miles
Clouds Scattered Clouds 4700 ft
Dew Point 59 °F
Humidity 50%
Rainfall 0.00 in
Snow Depth Not available.
UV 2 out of 12
Pollen 7.00 out of 12
Ozone Good
PM2.5 Good
Flu Activity Not available.
METAR KFQD 202055Z AUTO 36003KT 10SM SCT047 26/15 A3009 RMK AO2 T02600149

More Conditions Fewer Conditions

10-Day Weather Forecast

Almanac

Astronomy

Sep. 20, 2014 Rise Set
Actual Time 7:16 AM EDT 7:29 PM EDT
Civil Twilight 6:51 AM EDT 7:55 PM EDT
Nautical Twilight 6:21 AM EDT 8:25 PM EDT
Astronomical Twilight 5:51 AM EDT 8:55 PM EDT
Moon 4:00 AM EDT 5:28 PM EDT
Length of Visible Light 13h 04m
Length of Day
12h 13m
Tomorrow will be 2m 13s shorter.
Waning Crescent, 10% of the Moon is Illuminated
Today
Waning Crescent
Sep 24
New
Oct 1
First Quarter
Oct 8
Full
Oct 15
Last Quarter

Today's Extremes

State Highs State Lows

Community

WunderPhotos

Upload Photos

1,754,947 photos uploaded!

WunderBlogs® & News

Nearby

Air Quality

  Air Quality AQ Index Pollutant
Yesterday Good
PM2.5
Yesterday Good
OZONE
Current Good
OZONE
Current Good
PM2.5
Saturday Good
PM2.5
Saturday Good
OZONE
Sunday Good
PM2.5
Sunday Good
OZONE
Monday Good
PM2.5
Monday Good
OZONE
Tuesday Good
PM2.5
Tuesday Good
OZONE

Snow Depth

Station Depth Elevation
No new snow has been reported.

Earthquake Activity

City Distance Mag. Time & Date
Sweetwater, Tennessee 105 miles 2.5 3:54 PM EDT
2014-09-20
Minimum magnitude displayed is 2.5.

Coastal Water Temperatures

Place Temperature
No Stations Reporting

Nearby Weather Stations